Terminal Aerodrome Forecast
Issued by NWS

Home | Current Version | Previous Version | Text Only | Print | Product List | Glossary On
Versions: 1 2 3 4 5 6 7 8 9 10 11 12 13
000
FTUS42 TJSJ 041100
TAFJMZ
TAF
TJMZ 041121Z 0412/0512 05005KT P6SM FEW030 BKN070
     FM041530 08012KT P6SM VCSH SCT025 SCT040
     FM042200 07006KT P6SM FEW030 SCT070
      AMD NOT SKED TIL 041600=

USA.gov is the U.S. government's official web portal to all federal, state and local government web resources and services.